createdAt,value
2018-12-09T00:00:15.107Z,97028.57
2018-12-09T00:02:43.155Z,97009.52
2018-12-09T00:05:11.305Z,97003.55
2018-12-09T00:07:39.449Z,97030.52
2018-12-09T00:10:08.050Z,97033.27
2018-12-09T00:12:36.137Z,96958.99
2018-12-09T00:15:05.055Z,97022.55
2018-12-09T00:17:33.151Z,97001.24
2018-12-09T00:20:01.278Z,97037.98
2018-12-09T00:22:29.351Z,97046.91
2018-12-09T00:24:57.546Z,97051.63
2018-12-09T00:27:25.595Z,97051.13
2018-12-09T00:29:53.691Z,97045.30
2018-12-09T00:32:21.805Z,97044.30
2018-12-09T00:34:49.872Z,97036.98
2018-12-09T00:37:17.895Z,97034.89
2018-12-09T00:39:45.990Z,97011.67
2018-12-09T00:42:14.146Z,97034.42
2018-12-09T00:44:42.403Z,97036.68
2018-12-09T00:47:10.499Z,97041.41
2018-12-09T00:49:38.567Z,97046.09
2018-12-09T00:52:06.606Z,97027.38
2018-12-09T00:54:34.715Z,97042.55
2018-12-09T00:57:02.883Z,97037.36
2018-12-09T00:59:30.955Z,97024.47
2018-12-09T01:02:00.951Z,97021.23
2018-12-09T01:04:29.024Z,97026.62
2018-12-09T01:06:57.286Z,97015.20
2018-12-09T01:09:25.771Z,97005.44
2018-12-09T01:11:53.851Z,97012.75
2018-12-09T01:14:21.923Z,97002.18
2018-12-09T01:16:50.087Z,97005.27
2018-12-09T01:19:18.171Z,96979.28
2018-12-09T01:21:46.247Z,96987.41
2018-12-09T01:24:14.541Z,96981.71
2018-12-09T01:26:42.575Z,96972.46
2018-12-09T01:29:10.739Z,96985.97
2018-12-09T01:31:38.831Z,97000.11
2018-12-09T01:34:06.903Z,96995.11
2018-12-09T01:36:34.951Z,96997.39
2018-12-09T01:39:03.479Z,97002.44
2018-12-09T01:41:31.631Z,96987.31
2018-12-09T01:43:59.794Z,96993.33
2018-12-09T01:46:28.445Z,96993.67
2018-12-09T01:48:56.578Z,97004.21
2018-12-09T01:51:24.711Z,97015.63
2018-12-09T01:53:58.867Z,96985.72
2018-12-09T01:56:26.998Z,97006.05
2018-12-09T01:58:55.161Z,97011.73
2018-12-09T02:01:23.194Z,97019.83
2018-12-09T02:03:51.359Z,97004.75
2018-12-09T02:06:19.431Z,97017.24
2018-12-09T02:08:48.322Z,97020.66
2018-12-09T02:11:16.563Z,97006.55
2018-12-09T02:13:44.687Z,97020.01
2018-12-09T02:16:12.799Z,97016.59
2018-12-09T02:18:40.834Z,97032.05
2018-12-09T02:21:08.963Z,97038.36
2018-12-09T02:23:37.068Z,97037.55
2018-12-09T02:26:05.199Z,97027.00
2018-12-09T02:28:33.374Z,97038.70
2018-12-09T02:31:02.439Z,97062.73
2018-12-09T02:33:31.150Z,97045.20
2018-12-09T02:35:59.197Z,97056.06
2018-12-09T02:38:27.743Z,97058.50
2018-12-09T02:40:55.921Z,97058.18
2018-12-09T02:43:24.088Z,97054.78
2018-12-09T02:45:52.135Z,97057.86
2018-12-09T02:48:20.194Z,97039.00
2018-12-09T02:50:48.246Z,97030.27
2018-12-09T02:53:17.006Z,97024.89
2018-12-09T02:55:45.038Z,97035.60
2018-12-09T02:58:13.178Z,97034.45
2018-12-09T03:00:41.283Z,97035.92
2018-12-09T03:03:09.522Z,97038.36
2018-12-09T03:05:37.567Z,97021.97
2018-12-09T03:08:05.666Z,97029.75
2018-12-09T03:10:33.801Z,97022.78
2018-12-09T03:13:01.946Z,97026.34
2018-12-09T03:15:30.244Z,97028.77
2018-12-09T03:17:58.418Z,97032.33
2018-12-09T03:20:26.492Z,97038.14
2018-12-09T03:22:54.644Z,97048.87
2018-12-09T03:25:22.861Z,97055.37
2018-12-09T03:27:51.399Z,97076.64
2018-12-09T03:30:19.672Z,97089.74
2018-12-09T03:32:47.817Z,97088.98
2018-12-09T03:35:15.967Z,97079.03
2018-12-09T03:37:44.084Z,97072.34
2018-12-09T03:40:12.335Z,97077.64
2018-12-09T03:42:40.403Z,97067.76
2018-12-09T03:45:08.642Z,97054.42
2018-12-09T03:47:36.779Z,97066.59
2018-12-09T03:50:07.156Z,97051.71
2018-12-09T03:52:35.696Z,97050.80
2018-12-09T03:55:05.196Z,97042.86
2018-12-09T03:57:33.446Z,97034.28
2018-12-09T04:00:01.614Z,97038.50
2018-12-09T04:02:30.075Z,97037.52
2018-12-09T04:04:58.143Z,97027.83
2018-12-09T04:07:26.218Z,97034.63
2018-12-09T04:09:54.271Z,97033.66
2018-12-09T04:12:22.536Z,97039.77
2018-12-09T04:14:50.923Z,97051.78
2018-12-09T04:17:19.095Z,97063.45
2018-12-09T04:19:47.167Z,97067.37
2018-12-09T04:22:15.342Z,97075.78
2018-12-09T04:24:43.393Z,97078.21
2018-12-09T04:27:11.548Z,97079.76
2018-12-09T04:29:39.732Z,97087.70
2018-12-09T04:32:07.802Z,97083.70
2018-12-09T04:34:35.871Z,97100.69
2018-12-09T04:37:03.938Z,97117.38
2018-12-09T04:39:32.104Z,97125.78
2018-12-09T04:42:00.134Z,97130.30
2018-12-09T04:44:28.243Z,97096.61
2018-12-09T04:46:56.315Z,97105.05
2018-12-09T04:49:24.387Z,97092.98
2018-12-09T04:51:55.582Z,97095.84
2018-12-09T04:54:24.599Z,97106.16
2018-12-09T04:56:52.754Z,97103.05
2018-12-09T04:59:21.122Z,97114.59
2018-12-09T05:01:49.266Z,97120.34
2018-12-09T05:04:17.434Z,97128.94
2018-12-09T05:06:45.615Z,97119.34
2018-12-09T05:09:13.667Z,97112.70
2018-12-09T05:11:41.782Z,97117.42
2018-12-09T05:14:10.019Z,97114.41
2018-12-09T05:16:38.184Z,97128.31
2018-12-09T05:19:06.350Z,97132.64
2018-12-09T05:21:34.560Z,97132.52
2018-12-09T05:24:02.627Z,97138.19
2018-12-09T05:26:30.790Z,97145.63
2018-12-09T05:28:59.063Z,97138.86
2018-12-09T05:31:27.095Z,97141.27
2018-12-09T05:33:55.163Z,97147.96
2018-12-09T05:36:23.600Z,97157.02
2018-12-09T05:38:51.775Z,97174.95
2018-12-09T05:41:19.843Z,97180.89
2018-12-09T05:43:47.902Z,97175.08
2018-12-09T05:46:16.024Z,97179.27
2018-12-09T05:48:44.191Z,97143.45
2018-12-09T05:51:12.270Z,97181.49
2018-12-09T05:53:40.310Z,97186.75
2018-12-09T05:56:08.475Z,97176.64
2018-12-09T05:58:36.534Z,97179.14
2018-12-09T06:01:04.983Z,97192.58
2018-12-09T06:03:33.042Z,97161.44
2018-12-09T06:06:01.119Z,97190.91
2018-12-09T06:08:29.179Z,97186.53
2018-12-09T06:10:57.311Z,97183.98
2018-12-09T06:13:26.235Z,97185.23
2018-12-09T06:15:54.582Z,97183.48
2018-12-09T06:18:22.702Z,97202.12
2018-12-09T06:20:51.747Z,97203.83
2018-12-09T06:23:19.907Z,97204.88
2018-12-09T06:25:48.375Z,97211.80
2018-12-09T06:28:16.454Z,97211.47
2018-12-09T06:30:44.503Z,97217.09
2018-12-09T06:33:12.571Z,97238.03
2018-12-09T06:35:40.774Z,97240.16
2018-12-09T06:38:08.866Z,97244.95
2018-12-09T06:40:36.990Z,97244.97
2018-12-09T06:43:05.246Z,97248.08
2018-12-09T06:45:33.294Z,97236.68
2018-12-09T06:48:01.439Z,97239.86
2018-12-09T06:50:29.629Z,97237.61
2018-12-09T06:52:57.674Z,97235.95
2018-12-09T06:55:25.828Z,97247.12
2018-12-09T06:57:54.007Z,97256.64
2018-12-09T07:00:22.043Z,97257.01
2018-12-09T07:02:50.511Z,97260.85
2018-12-09T07:05:18.571Z,97265.84
2018-12-09T07:07:46.694Z,97276.46
2018-12-09T07:10:14.763Z,97263.05
2018-12-09T07:12:42.839Z,97262.35
2018-12-09T07:15:11.110Z,97269.30
2018-12-09T07:17:39.383Z,97263.91
2018-12-09T07:20:08.363Z,97265.13
2018-12-09T07:22:36.435Z,97255.38
2018-12-09T07:25:05.234Z,97260.23
2018-12-09T07:27:33.798Z,97265.64
2018-12-09T07:30:02.832Z,97268.92
2018-12-09T07:32:31.279Z,97255.08
2018-12-09T07:34:59.656Z,97266.45
2018-12-09T07:37:27.707Z,97270.48
2018-12-09T07:39:56.315Z,97267.45
2018-12-09T07:42:24.771Z,97275.25
2018-12-09T07:44:52.966Z,97281.21
2018-12-09T07:47:21.006Z,97284.81
2018-12-09T07:49:49.098Z,97293.60
2018-12-09T07:52:17.563Z,97287.99
2018-12-09T07:54:45.614Z,97278.86
2018-12-09T07:57:13.690Z,97282.33
2018-12-09T07:59:41.746Z,97307.78
2018-12-09T08:02:09.802Z,97294.94
2018-12-09T08:04:38.003Z,97300.73
2018-12-09T08:07:06.046Z,97319.81
2018-12-09T08:09:34.355Z,97314.57
2018-12-09T08:12:02.427Z,97334.37
2018-12-09T08:14:30.512Z,97342.52
2018-12-09T08:16:58.583Z,97338.78
2018-12-09T08:19:27.162Z,97347.77
2018-12-09T08:21:55.255Z,97338.49
2018-12-09T08:24:23.339Z,97333.68
2018-12-09T08:26:51.434Z,97344.27
2018-12-09T08:29:19.458Z,97353.86
2018-12-09T08:31:47.555Z,97336.12
2018-12-09T08:34:15.636Z,97344.45
2018-12-09T08:36:43.719Z,97339.41
2018-12-09T08:39:11.746Z,97351.97
2018-12-09T08:41:39.839Z,97349.08
2018-12-09T08:44:07.879Z,97348.63
2018-12-09T08:46:35.961Z,97351.26
2018-12-09T08:49:04.430Z,97365.47
2018-12-09T08:51:32.518Z,97355.77
2018-12-09T08:54:00.577Z,97364.96
2018-12-09T08:56:28.635Z,97373.28
2018-12-09T08:58:56.696Z,97362.00
2018-12-09T09:01:24.730Z,97362.16
2018-12-09T09:03:52.898Z,97369.28
2018-12-09T09:06:21.727Z,97367.62
2018-12-09T09:08:49.807Z,97373.48
2018-12-09T09:11:17.875Z,97375.45
2018-12-09T09:13:45.971Z,97374.94
2018-12-09T09:16:14.039Z,97381.04
2018-12-09T09:18:42.219Z,97373.30
2018-12-09T09:21:10.387Z,97388.19
2018-12-09T09:23:38.460Z,97387.81
2018-12-09T09:26:06.703Z,97378.09
2018-12-09T09:28:34.727Z,97379.23
2018-12-09T09:31:02.802Z,97379.00
2018-12-09T09:33:30.875Z,97387.49
2018-12-09T09:35:58.910Z,97384.95
2018-12-09T09:38:27.134Z,97397.86
2018-12-09T09:40:55.194Z,97370.30
2018-12-09T09:43:23.242Z,97386.11
2018-12-09T09:45:51.315Z,97384.83
2018-12-09T09:48:19.715Z,97370.03
2018-12-09T09:50:47.779Z,97391.86
2018-12-09T09:53:15.871Z,97385.12
2018-12-09T09:55:43.996Z,97397.88
2018-12-09T09:58:12.147Z,97389.64
2018-12-09T10:00:40.213Z,97382.05
2018-12-09T10:03:08.327Z,97387.20
2018-12-09T10:05:36.378Z,97392.92
2018-12-09T10:08:04.459Z,97369.84
2018-12-09T10:10:32.563Z,97383.24
2018-12-09T10:13:00.636Z,97379.33
2018-12-09T10:15:28.704Z,97395.02
2018-12-09T10:17:56.754Z,97385.40
2018-12-09T10:20:24.802Z,97382.70
2018-12-09T10:22:53.024Z,97382.26
2018-12-09T10:25:21.118Z,97382.13
2018-12-09T10:27:49.155Z,97387.10
2018-12-09T10:30:17.215Z,97384.02
2018-12-09T10:32:45.282Z,97387.57
2018-12-09T10:35:13.330Z,97380.88
2018-12-09T10:37:41.452Z,97372.08
2018-12-09T10:40:10.307Z,97385.66
2018-12-09T10:42:38.367Z,97377.45
2018-12-09T10:45:06.803Z,97384.29
2018-12-09T10:47:34.963Z,97380.25
2018-12-09T10:50:04.050Z,97384.86
2018-12-09T10:52:32.131Z,97381.00
2018-12-09T10:55:00.200Z,97368.14
2018-12-09T10:57:28.330Z,97384.47
2018-12-09T10:59:56.394Z,97370.05
2018-12-09T11:02:24.790Z,97367.50
2018-12-09T11:04:52.846Z,97364.37
2018-12-09T11:07:20.938Z,97357.65
2018-12-09T11:09:49.007Z,97365.35
2018-12-09T11:12:17.067Z,97364.59
2018-12-09T11:14:45.130Z,97373.05
2018-12-09T11:17:13.202Z,97360.84
2018-12-09T11:19:41.289Z,97360.06
2018-12-09T11:22:09.763Z,97363.39
2018-12-09T11:24:37.822Z,97361.50
2018-12-09T11:27:05.903Z,97356.63
2018-12-09T11:29:33.942Z,97333.59
2018-12-09T11:32:02.004Z,97357.47
2018-12-09T11:34:30.168Z,97356.01
2018-12-09T11:36:58.202Z,97363.39
2018-12-09T11:39:26.263Z,97358.91
2018-12-09T11:41:54.347Z,97358.09
2018-12-09T11:44:22.407Z,97365.83
2018-12-09T11:46:50.481Z,97354.36
2018-12-09T11:49:18.547Z,97354.73
2018-12-09T11:51:46.630Z,97371.27
2018-12-09T11:54:14.714Z,97349.52
2018-12-09T11:56:42.762Z,97346.96
2018-12-09T11:59:11.912Z,97355.94
2018-12-09T12:01:40.196Z,97364.72
2018-12-09T12:04:08.327Z,97370.44
2018-12-09T12:06:36.372Z,97360.39
2018-12-09T12:09:06.115Z,97359.88
2018-12-09T12:11:34.283Z,97364.13
2018-12-09T12:14:02.819Z,97353.06
2018-12-09T12:16:30.877Z,97353.45
2018-12-09T12:18:58.914Z,97342.81
2018-12-09T12:21:27.050Z,97341.41
2018-12-09T12:23:55.152Z,97349.30
2018-12-09T12:26:23.409Z,97349.33
2018-12-09T12:28:51.478Z,97346.94
2018-12-09T12:31:19.543Z,97344.39
2018-12-09T12:33:47.624Z,97346.27
2018-12-09T12:36:15.695Z,97345.41
2018-12-09T12:38:43.779Z,97339.96
2018-12-09T12:41:11.826Z,97336.30
2018-12-09T12:43:39.867Z,97331.00
2018-12-09T12:46:07.964Z,97324.23
2018-12-09T12:48:36.017Z,97323.31
2018-12-09T12:51:04.228Z,97332.61
2018-12-09T12:53:32.451Z,97320.68
2018-12-09T12:56:00.594Z,97329.50
2018-12-09T12:58:28.795Z,97324.11
2018-12-09T13:00:56.879Z,97328.16
2018-12-09T13:03:24.967Z,97333.53
2018-12-09T13:05:53.295Z,97328.01
2018-12-09T13:08:21.642Z,97336.38
2018-12-09T13:10:49.735Z,97342.48
2018-12-09T13:13:17.881Z,97349.45
2018-12-09T13:15:45.914Z,97347.33
2018-12-09T13:18:13.955Z,97341.42
2018-12-09T13:20:42.007Z,97341.70
2018-12-09T13:23:10.099Z,97353.69
2018-12-09T13:25:38.174Z,97356.63
2018-12-09T13:28:06.282Z,97360.14
2018-12-09T13:30:34.479Z,97346.07
2018-12-09T13:33:02.527Z,97354.52
2018-12-09T13:35:30.583Z,97355.60
2018-12-09T13:37:58.631Z,97361.81
2018-12-09T13:40:26.795Z,97366.20
2018-12-09T13:42:54.899Z,97365.56
2018-12-09T13:45:23.458Z,97370.66
2018-12-09T13:47:51.670Z,97366.81
2018-12-09T13:50:19.743Z,97369.63
2018-12-09T13:52:47.843Z,97380.75
2018-12-09T13:55:15.872Z,97383.63
2018-12-09T13:57:43.939Z,97382.64
2018-12-09T14:00:13.900Z,97387.10
2018-12-09T14:02:41.925Z,97402.89
2018-12-09T14:05:09.992Z,97409.36
2018-12-09T14:07:38.034Z,97416.92
2018-12-09T14:10:06.595Z,97416.52
2018-12-09T14:12:34.703Z,97425.01
2018-12-09T14:15:03.622Z,97430.83
2018-12-09T14:17:31.662Z,97434.54
2018-12-09T14:19:59.862Z,97434.41
2018-12-09T14:22:27.931Z,97442.33
2018-12-09T14:24:55.966Z,97455.60
2018-12-09T14:27:24.291Z,97462.09
2018-12-09T14:29:52.554Z,97460.58
2018-12-09T14:32:20.631Z,97467.31
2018-12-09T14:34:48.725Z,97459.72
2018-12-09T14:37:16.862Z,97467.66
2018-12-09T14:39:45.323Z,97480.62
2018-12-09T14:42:13.390Z,97475.05
2018-12-09T14:44:41.463Z,97484.73
2018-12-09T14:47:09.514Z,97483.27
2018-12-09T14:49:37.586Z,97486.56
2018-12-09T14:52:05.715Z,97498.73
2018-12-09T14:54:33.784Z,97512.70
2018-12-09T14:57:01.850Z,97521.47
2018-12-09T14:59:29.890Z,97525.66
2018-12-09T15:01:57.975Z,97528.64
2018-12-09T15:04:26.454Z,97539.41
2018-12-09T15:06:54.503Z,97545.13
2018-12-09T15:09:22.587Z,97541.50
2018-12-09T15:11:50.675Z,97556.05
2018-12-09T15:14:18.727Z,97553.25
2018-12-09T15:16:46.814Z,97554.27
2018-12-09T15:19:14.870Z,97557.61
2018-12-09T15:21:42.923Z,97564.15
2018-12-09T15:24:10.958Z,97575.92
2018-12-09T15:26:39.063Z,97587.41
2018-12-09T15:29:07.159Z,97584.36
2018-12-09T15:31:35.470Z,97588.38
2018-12-09T15:34:03.643Z,97604.36
2018-12-09T15:36:31.706Z,97600.94
2018-12-09T15:38:59.783Z,97611.65
2018-12-09T15:41:27.834Z,97620.23
2018-12-09T15:43:55.927Z,97622.18
2018-12-09T15:46:23.999Z,97626.67
2018-12-09T15:48:52.037Z,97631.93
2018-12-09T15:51:20.130Z,97642.23
2018-12-09T15:53:48.166Z,97645.33
2018-12-09T15:56:16.218Z,97646.63
2018-12-09T15:58:44.310Z,97661.99
2018-12-09T16:01:12.371Z,97670.43
2018-12-09T16:03:40.411Z,97674.24
2018-12-09T16:06:08.462Z,97673.55
2018-12-09T16:08:36.539Z,97686.44
2018-12-09T16:11:04.575Z,97684.28
2018-12-09T16:13:35.732Z,97694.00
2018-12-09T16:16:02.827Z,97697.09
2018-12-09T16:18:30.891Z,97714.23
2018-12-09T16:20:58.984Z,97720.82
2018-12-09T16:23:27.039Z,97722.97
2018-12-09T16:25:55.107Z,97726.48
2018-12-09T16:28:23.237Z,97720.40
2018-12-09T16:30:51.378Z,97724.25
2018-12-09T16:33:19.418Z,97745.75
2018-12-09T16:35:47.683Z,97748.46
2018-12-09T16:38:15.842Z,97754.74
2018-12-09T16:40:43.891Z,97759.56
2018-12-09T16:43:12.011Z,97768.81
2018-12-09T16:45:40.030Z,97770.00
2018-12-09T16:48:08.120Z,97782.19
2018-12-09T16:50:36.210Z,97790.00
2018-12-09T16:53:04.368Z,97795.34
2018-12-09T16:55:32.411Z,97795.09
2018-12-09T16:58:00.510Z,97810.62
2018-12-09T17:00:28.685Z,97815.03
2018-12-09T17:02:56.751Z,97830.44
2018-12-09T17:05:24.843Z,97842.79
2018-12-09T17:07:52.919Z,97847.93
2018-12-09T17:10:20.959Z,97837.34
2018-12-09T17:12:49.139Z,97841.05
2018-12-09T17:15:17.196Z,97844.50
2018-12-09T17:17:45.283Z,97848.92
2018-12-09T17:20:13.539Z,97863.72
2018-12-09T17:22:41.822Z,97873.33
2018-12-09T17:25:09.907Z,97871.53
2018-12-09T17:27:37.999Z,97889.09
2018-12-09T17:30:07.089Z,97893.64
2018-12-09T17:32:35.167Z,97893.83
2018-12-09T17:35:03.851Z,97888.92
2018-12-09T17:37:31.931Z,97892.98
2018-12-09T17:39:59.998Z,97905.66
2018-12-09T17:42:28.067Z,97912.94
2018-12-09T17:44:56.131Z,97917.65
2018-12-09T17:47:24.208Z,97922.77
2018-12-09T17:49:52.289Z,97932.72
2018-12-09T17:52:20.350Z,97931.41
2018-12-09T17:54:48.432Z,97933.66
2018-12-09T17:57:17.490Z,97935.44
2018-12-09T17:59:45.582Z,97943.70
2018-12-09T18:02:13.667Z,97952.80
2018-12-09T18:04:41.743Z,97955.45
2018-12-09T18:07:09.856Z,97961.05
2018-12-09T18:09:37.909Z,97962.73
2018-12-09T18:12:06.142Z,97975.68
2018-12-09T18:14:34.218Z,97983.28
2018-12-09T18:17:02.289Z,97986.77
2018-12-09T18:19:30.368Z,97995.45
2018-12-09T18:21:58.838Z,98001.92
2018-12-09T18:24:27.029Z,98008.30
2018-12-09T18:26:55.097Z,98016.80
2018-12-09T18:29:23.231Z,98029.29
2018-12-09T18:31:51.319Z,98036.16
2018-12-09T18:34:19.578Z,98040.77
2018-12-09T18:36:47.654Z,98033.48
2018-12-09T18:39:15.698Z,98049.63
2018-12-09T18:41:43.742Z,98061.70
2018-12-09T18:44:11.815Z,98066.16
2018-12-09T18:46:39.858Z,98073.22
2018-12-09T18:49:07.931Z,98076.52
2018-12-09T18:51:36.027Z,98079.86
2018-12-09T18:54:04.101Z,98090.84
2018-12-09T18:56:32.147Z,98097.52
2018-12-09T18:59:00.220Z,98103.88
2018-12-09T19:01:28.650Z,98105.71
2018-12-09T19:03:56.667Z,98108.91
2018-12-09T19:06:24.775Z,98110.09
2018-12-09T19:08:52.943Z,98120.14
2018-12-09T19:11:21.199Z,98130.34
2018-12-09T19:13:49.279Z,98133.70
2018-12-09T19:16:17.339Z,98140.48
2018-12-09T19:18:45.394Z,98154.36
2018-12-09T19:21:13.687Z,98154.70
2018-12-09T19:23:41.815Z,98167.47
2018-12-09T19:26:09.886Z,98173.50
2018-12-09T19:28:37.994Z,98176.34
2018-12-09T19:31:06.375Z,98175.80
2018-12-09T19:33:34.455Z,98184.70
2018-12-09T19:36:02.546Z,98194.60
2018-12-09T19:38:30.619Z,98194.73
2018-12-09T19:40:58.716Z,98197.19
2018-12-09T19:43:26.786Z,98199.46
2018-12-09T19:45:54.868Z,98203.92
2018-12-09T19:48:23.042Z,98202.90
2018-12-09T19:50:51.127Z,98209.34
2018-12-09T19:53:19.234Z,98221.97
2018-12-09T19:55:47.311Z,98220.92
2018-12-09T19:58:15.378Z,98226.89
2018-12-09T20:00:43.442Z,98237.00
2018-12-09T20:03:11.619Z,98247.39
2018-12-09T20:05:39.765Z,98253.26
2018-12-09T20:08:07.831Z,98264.77
2018-12-09T20:10:35.891Z,98277.51
2018-12-09T20:13:03.971Z,98278.03
2018-12-09T20:15:32.024Z,98286.02
2018-12-09T20:18:00.131Z,98288.34
2018-12-09T20:20:28.399Z,98293.99
2018-12-09T20:22:56.567Z,98307.70
2018-12-09T20:25:24.781Z,98317.51
2018-12-09T20:27:52.948Z,98320.77
2018-12-09T20:30:21.028Z,98313.80
2018-12-09T20:32:49.067Z,98319.39
2018-12-09T20:35:17.115Z,98318.05
2018-12-09T20:37:45.180Z,98314.28
2018-12-09T20:40:13.349Z,98320.84
2018-12-09T20:42:48.006Z,98328.17
2018-12-09T20:45:11.475Z,98326.16
2018-12-09T20:47:39.934Z,98336.98
2018-12-09T20:50:08.142Z,98335.38
2018-12-09T20:52:36.178Z,98338.17
2018-12-09T20:55:06.522Z,98340.71
2018-12-09T20:57:34.589Z,98347.98
2018-12-09T21:00:02.991Z,98350.29
2018-12-09T21:02:31.319Z,98350.02
2018-12-09T21:04:59.334Z,98365.07
2018-12-09T21:07:27.390Z,98368.33
2018-12-09T21:09:55.507Z,98369.20
2018-12-09T21:12:23.534Z,98378.99
2018-12-09T21:14:51.607Z,98383.48
2018-12-09T21:17:19.699Z,98385.98
2018-12-09T21:19:48.670Z,98383.44
2018-12-09T21:22:16.768Z,98386.36
2018-12-09T21:24:44.830Z,98385.53
2018-12-09T21:27:12.911Z,98387.70
2018-12-09T21:29:40.983Z,98390.84
2018-12-09T21:32:09.046Z,98397.98
2018-12-09T21:34:37.411Z,98406.12
2018-12-09T21:37:05.487Z,98411.39
2018-12-09T21:39:33.570Z,98414.89
2018-12-09T21:42:01.755Z,98432.09
2018-12-09T21:44:29.799Z,98428.02
2018-12-09T21:46:57.999Z,98434.19
2018-12-09T21:49:26.047Z,98440.88
2018-12-09T21:51:54.111Z,98446.34
2018-12-09T21:54:22.294Z,98453.33
2018-12-09T21:56:50.383Z,98453.31
2018-12-09T21:59:18.439Z,98454.94
2018-12-09T22:01:46.514Z,98455.31
2018-12-09T22:04:14.595Z,98463.36
2018-12-09T22:06:42.668Z,98463.99
2018-12-09T22:09:10.726Z,98465.09
2018-12-09T22:11:38.815Z,98470.97
2018-12-09T22:14:06.889Z,98473.59
2018-12-09T22:16:34.970Z,98476.31
2018-12-09T22:19:03.124Z,98484.75
2018-12-09T22:21:31.194Z,98486.83
2018-12-09T22:23:59.586Z,98500.61
2018-12-09T22:26:27.659Z,98507.39
2018-12-09T22:28:55.732Z,98509.67
2018-12-09T22:31:23.811Z,98520.53
2018-12-09T22:33:51.852Z,98521.96
2018-12-09T22:36:19.936Z,98531.02
2018-12-09T22:38:48.018Z,98536.88
2018-12-09T22:41:16.095Z,98533.62
2018-12-09T22:43:44.226Z,98531.30
2018-12-09T22:46:12.631Z,98533.97
2018-12-09T22:48:40.676Z,98533.84
2018-12-09T22:51:08.726Z,98543.47
2018-12-09T22:53:36.797Z,98554.25
2018-12-09T22:56:04.967Z,98559.28
2018-12-09T22:58:33.039Z,98559.58
2018-12-09T23:01:03.123Z,98563.27
2018-12-09T23:03:31.359Z,98556.91
2018-12-09T23:05:59.451Z,98560.22
2018-12-09T23:08:27.539Z,98562.17
2018-12-09T23:10:55.686Z,98562.47
2018-12-09T23:13:23.734Z,98570.91
2018-12-09T23:15:52.092Z,98573.97
2018-12-09T23:18:20.214Z,98582.35
2018-12-09T23:20:48.291Z,98583.85
2018-12-09T23:23:16.368Z,98586.94
2018-12-09T23:25:44.435Z,98591.37
2018-12-09T23:28:12.506Z,98590.58
2018-12-09T23:30:40.683Z,98583.73
2018-12-09T23:33:08.814Z,98586.16
2018-12-09T23:35:37.031Z,98585.05
2018-12-09T23:38:05.139Z,98596.79
2018-12-09T23:40:33.379Z,98597.66
2018-12-09T23:43:01.446Z,98602.42
2018-12-09T23:45:29.531Z,98604.70
2018-12-09T23:47:57.562Z,98612.45
2018-12-09T23:50:25.656Z,98619.02
2018-12-09T23:52:53.745Z,98621.83
2018-12-09T23:55:21.903Z,98627.96
2018-12-09T23:57:49.938Z,98625.48
